Terminal Aerodrome Forecast
Issued by NWS

Home | Current Version | Previous Version | Text Only | Print | Product List | Glossary On
Versions: 1 2 3 4 5 6 7 8 9 10 11 12 13 14 15
000
FTUS46 KPDT 252320
TAFBDN
TAF
KBDN 252320Z 2600/2624 33012G22KT P6SM VCSH SCT050 BKN090
      TEMPO 2600/2602 -TSRA BKN050CB
     FM260200 32008KT P6SM SCT040 BKN250
     FM260600 VRB03KT P6SM FEW060 BKN200
     FM262000 32008KT P6SM SCT100 BKN200=

USA.gov is the U.S. government's official web portal to all federal, state and local government web resources and services.